Thursday, October 19, 2017, 7:06 AM EDT
Back to Local

KPVD, Providence Green State Airport

Location: Warwick, RI, United States Lat: 41.733
Local Time: 7:06 AM EDT (11:06 GMT) Lon: -71.433
Time Zone: US/Eastern Elev: 55 ft

Show me the last for .
Show Decoded

2017-10-19 05:51 METAR KPVD 190951Z 00000KT 10SM BCFG FEW005 08/08 A3025 RMK AO2 SLP245 BCFG
                 ALQDS T00830078 =
2017-10-19 04:51 METAR KPVD 190851Z 00000KT 10SM R05/4000VP6000FT CLR 09/08 A3026 RMK AO2 SLP247
                 T00890083 55006 =
2017-10-19 03:51 METAR KPVD 190751Z 00000KT 8SM CLR 09/08 A3026 RMK AO2 SLP245 T00890083 =
2017-10-19 02:51 METAR KPVD 190651Z 00000KT 10SM CLR 09/09 A3027 RMK AO2 SLP249 T00890089 =
2017-10-19 01:51 METAR KPVD 190551Z 00000KT 10SM CLR 09/09 A3028 RMK AO2 SLP253 T00940094 10156
                 20094 55004 =
2017-10-19 00:51 METAR KPVD 190451Z 23003KT 10SM CLR 11/11 A3027 RMK AO2 SLP252 T01110106
                 402330072 =
2017-10-18 23:51 METAR KPVD 190351Z 23004KT 10SM FEW250 11/09 A3028 RMK AO2 SLP255 LAST T01060094
                 =
2017-10-18 22:51 METAR KPVD 190251Z 00000KT 10SM CLR 12/10 A3029 RMK AO2 SLP257 T01220100 50005 =
2017-10-18 21:51 METAR KPVD 190151Z 00000KT 10SM CLR 13/09 A3030 RMK AO2 SLP259 T01280094 =
2017-10-18 20:51 METAR KPVD 190051Z 23005KT 10SM CLR 13/09 A3029 RMK AO2 SLP256 T01330094 =
2017-10-18 19:51 METAR KPVD 182351Z 22003KT 10SM CLR 15/10 A3027 RMK AO2 SLP251 T01500100 10233
                 20150 51015 =
2017-10-18 18:51 METAR KPVD 182251Z 21006KT 10SM CLR 16/09 A3026 RMK AO2 SLP249 T01610089 =
2017-10-18 17:51 METAR KPVD 182151Z 27003KT 10SM CLR 21/06 A3024 RMK AO2 SLP241 T02060061 =
2017-10-18 16:51 METAR KPVD 182051Z 27005KT 10SM CLR 23/06 A3023 RMK AO2 SLP236 T02280056 55003 =
2017-10-18 15:51 METAR KPVD 181951Z 26008KT 10SM FEW250 23/06 A3023 RMK AO2 SLP236 T02330061 $ =
2017-10-18 14:51 METAR KPVD 181851Z 27006KT 10SM FEW300 23/06 A3023 RMK AO2 SLP238 T02280056 =
2017-10-18 13:51 METAR KPVD 181751Z 30007KT 10SM FEW300 22/07 A3024 RMK AO2 SLP239 T02220072
                 10228 20094 58017 =
2017-10-18 12:51 METAR KPVD 181651Z 30005KT 10SM FEW300 21/07 A3026 RMK AO2 SLP248 T02110067 =
2017-10-18 11:51 METAR KPVD 181551Z 28004KT 10SM FEW300 20/08 A3029 RMK AO2 SLP256 T02000078 =
2017-10-18 10:51 METAR KPVD 181451Z 26009KT 10SM FEW300 18/07 A3029 RMK AO2 SLP256 T01830067
                 50004 =
2017-10-18 09:51 METAR KPVD 181351Z 26006KT 10SM FEW300 14/06 A3029 RMK AO2 SLP257 T01440056 =
2017-10-18 08:51 METAR KPVD 181251Z 26004KT 10SM FEW300 12/05 A3029 RMK AO2 SLP256 T01170050 =
2017-10-18 07:51 METAR KPVD 181151Z 20003KT 10SM FEW300 09/05 A3027 RMK AO2 SLP252 T00890050
                 10100 20072 53012 =

Support USWX by starting your Amazon purchase here.